createdAt,value
2023-01-29T00:18:38.629Z,15.19
2023-01-29T00:19:38.608Z,15.20
2023-01-29T00:20:38.627Z,15.20
2023-01-29T00:21:38.631Z,15.14
2023-01-29T00:22:38.646Z,15.19
2023-01-29T00:23:38.618Z,15.22
2023-01-29T00:24:38.608Z,15.19
2023-01-29T00:25:38.613Z,15.17
2023-01-29T00:26:38.626Z,15.17
2023-01-29T00:27:38.629Z,15.23
2023-01-29T00:28:38.602Z,15.17
2023-01-29T00:29:38.635Z,15.19
2023-01-29T00:30:38.611Z,15.14
2023-01-29T00:31:38.687Z,15.17
2023-01-29T00:32:38.606Z,15.19
2023-01-29T00:33:38.695Z,15.22
2023-01-29T00:34:38.575Z,15.22
2023-01-29T00:35:38.576Z,15.20
2023-01-29T00:36:38.589Z,15.25
2023-01-29T00:37:38.574Z,15.17
2023-01-29T00:38:38.558Z,15.20
2023-01-29T00:39:47.375Z,15.20
2023-01-29T00:41:38.523Z,15.20
2023-01-29T00:42:38.575Z,15.20
2023-01-29T00:43:38.554Z,15.22
2023-01-29T00:44:38.519Z,15.20
2023-01-29T00:45:38.523Z,15.22
2023-01-29T00:46:38.600Z,15.23
2023-01-29T00:47:38.520Z,15.19
2023-01-29T00:48:38.493Z,15.22
2023-01-29T00:49:38.477Z,15.19
2023-01-29T00:50:38.480Z,15.19
2023-01-29T00:51:38.449Z,15.17
2023-01-29T00:52:38.467Z,15.22
2023-01-29T00:53:38.456Z,15.17
2023-01-29T00:54:38.446Z,15.17
2023-01-29T00:55:38.444Z,15.15
2023-01-29T00:56:38.449Z,15.20
2023-01-29T00:57:38.442Z,15.09
2023-01-29T00:58:38.451Z,15.15
2023-01-29T00:59:38.419Z,15.15
2023-01-29T01:00:38.455Z,15.09
2023-01-29T01:01:38.440Z,15.19
2023-01-29T01:02:38.390Z,15.14
2023-01-29T01:03:38.391Z,15.12
2023-01-29T01:04:38.372Z,15.12
2023-01-29T01:05:38.384Z,15.14
2023-01-29T01:06:38.391Z,15.03
2023-01-29T01:07:38.342Z,15.12
2023-01-29T01:28:38.208Z,15.05
2023-01-29T09:37:41.779Z,12.86
2023-01-29T09:38:41.843Z,12.83
2023-01-29T09:39:41.851Z,12.84
2023-01-29T09:40:41.914Z,12.86
2023-01-29T09:41:41.982Z,12.87
2023-01-29T09:42:42.089Z,12.87
2023-01-29T09:43:42.106Z,12.89
2023-01-29T09:44:42.166Z,12.90
2023-01-29T09:45:42.242Z,12.92
2023-01-29T09:46:42.241Z,12.93
2023-01-29T09:47:42.311Z,12.87
2023-01-29T09:48:42.355Z,12.93
2023-01-29T09:49:42.457Z,12.95
2023-01-29T09:50:42.466Z,12.90
2023-01-29T09:51:42.526Z,12.93
2023-01-29T09:52:42.595Z,12.92
2023-01-29T09:53:42.606Z,12.92
2023-01-29T09:54:42.695Z,12.84
2023-01-29T09:55:42.720Z,12.90
2023-01-29T09:56:42.751Z,12.88
2023-01-29T09:57:42.826Z,12.88
2023-01-29T09:58:42.867Z,12.86
2023-01-29T09:59:42.932Z,12.86
2023-01-29T10:00:42.966Z,12.83
2023-01-29T10:01:43.066Z,12.82
2023-01-29T10:02:43.027Z,12.88
2023-01-29T10:03:43.093Z,12.85
2023-01-29T10:04:43.197Z,12.80
2023-01-29T10:05:43.190Z,12.82
2023-01-29T10:06:43.234Z,12.83
2023-01-29T10:07:43.272Z,12.82
2023-01-29T10:11:43.395Z,12.79
2023-01-29T10:12:43.449Z,12.84
2023-01-29T10:13:43.476Z,12.78
2023-01-29T10:14:43.511Z,12.78
2023-01-29T10:15:43.555Z,12.76
2023-01-29T10:16:43.627Z,12.75
2023-01-29T10:17:43.588Z,12.79
2023-01-29T10:18:43.649Z,12.81
2023-01-29T10:19:43.657Z,12.83
2023-01-29T10:20:43.693Z,12.83
2023-01-29T10:21:43.706Z,12.77
2023-01-29T10:22:43.749Z,12.80
2023-01-29T10:23:43.751Z,12.80
2023-01-29T10:24:43.786Z,12.77
2023-01-29T10:25:43.844Z,12.78
2023-01-29T10:26:43.860Z,12.80
2023-01-29T10:27:43.838Z,12.83
2023-01-29T10:28:43.874Z,12.78
2023-01-29T10:29:43.931Z,12.79
2023-01-29T10:30:44.023Z,12.80
2023-01-29T10:31:44.070Z,12.80
2023-01-29T10:32:43.990Z,12.80
2023-01-29T10:33:49.430Z,12.79
2023-01-29T10:34:44.988Z,12.76
2023-01-29T10:35:43.978Z,12.77
2023-01-29T10:36:43.995Z,12.73
2023-01-29T10:37:43.981Z,12.77
2023-01-29T10:38:43.956Z,12.77
2023-01-29T10:39:43.969Z,12.74
2023-01-29T10:40:43.944Z,12.77
2023-01-29T10:41:43.945Z,12.77
2023-01-29T10:42:43.946Z,12.81
2023-01-29T10:43:43.941Z,12.78
2023-01-29T10:44:43.925Z,12.82
2023-01-29T10:45:43.932Z,12.75
2023-01-29T10:46:43.906Z,12.78
2023-01-29T10:47:43.921Z,12.82
2023-01-29T10:48:43.906Z,12.78
2023-01-29T10:49:43.879Z,12.78
2023-01-29T10:50:43.910Z,12.75
2023-01-29T10:51:43.877Z,12.75
2023-01-29T10:52:43.858Z,12.78
2023-01-29T10:53:43.890Z,12.81
2023-01-29T10:54:43.870Z,12.81
2023-01-29T10:55:43.855Z,12.79
2023-01-29T10:56:43.838Z,12.72
2023-01-29T10:57:43.847Z,12.78
2023-01-29T10:58:45.474Z,12.75
2023-01-29T10:59:43.823Z,12.76
2023-01-29T11:00:43.835Z,12.73
2023-01-29T11:01:43.828Z,12.78
2023-01-29T11:02:43.890Z,12.78
2023-01-29T11:03:43.851Z,12.78
2023-01-29T11:04:43.765Z,12.79
2023-01-29T11:05:43.811Z,12.79
2023-01-29T11:06:43.764Z,12.78
2023-01-29T11:07:43.767Z,12.84
2023-01-29T11:08:43.729Z,12.79
2023-01-29T11:09:43.760Z,12.84
2023-01-29T11:10:43.751Z,12.78
2023-01-29T11:11:43.740Z,12.83
2023-01-29T11:12:43.759Z,12.77
2023-01-29T11:13:43.717Z,12.80
2023-01-29T11:14:43.724Z,12.80
2023-01-29T11:15:43.730Z,12.82
2023-01-29T11:16:43.731Z,12.80
2023-01-29T11:17:43.757Z,12.76
2023-01-29T11:18:43.695Z,12.77
2023-01-29T11:19:43.668Z,12.74
2023-01-29T11:20:43.690Z,12.76
2023-01-29T11:21:43.669Z,12.73
2023-01-29T11:22:43.700Z,12.72
2023-01-29T11:23:43.644Z,12.68
2023-01-29T11:24:43.643Z,12.60
2023-01-29T11:25:43.654Z,12.63
2023-01-29T11:26:43.667Z,12.59
2023-01-29T11:27:43.632Z,12.38
2023-01-29T11:28:43.638Z,12.07
2023-01-29T11:29:43.633Z,12.14
2023-01-29T11:30:43.612Z,11.50
2023-01-29T11:31:43.694Z,10.54
2023-01-29T11:32:43.593Z,9.96
2023-01-29T11:33:43.612Z,9.36
2023-01-29T11:34:43.562Z,9.24
2023-01-29T11:35:44.491Z,9.48
2023-01-29T11:36:43.560Z,9.92
2023-01-29T16:45:52.055Z,13.65
2023-01-29T16:46:51.807Z,13.59
2023-01-29T16:47:51.935Z,13.65
2023-01-29T16:48:51.925Z,13.67
2023-01-29T16:49:51.980Z,13.62
2023-01-29T16:50:55.293Z,13.65
2023-01-29T16:51:52.008Z,13.67
2023-01-29T16:52:52.007Z,13.71
2023-01-29T16:53:51.985Z,13.69
2023-01-29T16:54:52.011Z,13.67
2023-01-29T16:55:51.965Z,13.70
2023-01-29T16:56:51.984Z,13.65
2023-01-29T16:57:51.948Z,13.70
2023-01-29T16:58:51.938Z,13.71
2023-01-29T16:59:51.952Z,13.76
2023-01-29T17:00:51.963Z,13.71
2023-01-29T17:01:51.901Z,13.76
2023-01-29T17:02:51.932Z,13.72
2023-01-29T17:03:51.938Z,13.76
2023-01-29T17:04:51.934Z,13.74
2023-01-29T17:05:51.943Z,13.72
2023-01-29T17:06:51.884Z,13.73
2023-01-29T17:07:51.886Z,13.72
2023-01-29T17:08:51.896Z,13.71
2023-01-29T17:12:51.842Z,13.80
2023-01-29T17:13:51.836Z,13.74
2023-01-29T17:14:51.827Z,13.77
2023-01-29T17:15:51.855Z,13.80
2023-01-29T17:16:51.847Z,13.77
2023-01-29T17:17:51.823Z,13.81
2023-01-29T17:18:51.816Z,13.76
2023-01-29T17:19:51.832Z,13.80
2023-01-29T17:20:51.836Z,13.81
2023-01-29T17:21:51.920Z,13.83
2023-01-29T17:22:51.984Z,13.83
2023-01-29T17:23:52.068Z,13.75
2023-01-29T17:24:52.110Z,13.81
2023-01-29T17:25:52.135Z,13.83
2023-01-29T17:26:52.213Z,13.83
2023-01-29T17:27:52.303Z,13.86
2023-01-29T17:28:52.344Z,13.83
2023-01-29T17:29:53.511Z,13.86
2023-01-29T17:31:05.289Z,13.81
2023-01-29T17:32:52.420Z,13.80
2023-01-29T17:33:52.431Z,13.89
2023-01-29T17:34:52.428Z,13.91
2023-01-29T17:35:52.392Z,13.87
2023-01-29T17:36:52.395Z,13.86
2023-01-29T17:37:52.397Z,13.86
2023-01-29T17:38:52.403Z,13.89
2023-01-29T21:25:01.721Z,14.18
2023-01-29T21:26:01.725Z,14.18
2023-01-29T21:27:01.743Z,14.20
2023-01-29T21:28:01.796Z,14.17
2023-01-29T21:29:01.799Z,14.20
2023-01-29T21:30:01.802Z,14.14
2023-01-29T21:31:01.870Z,14.15
2023-01-29T21:32:01.867Z,14.14
2023-01-29T21:33:01.855Z,14.18
2023-01-29T21:34:01.880Z,14.12
2023-01-29T21:35:01.893Z,14.15
2023-01-29T21:36:01.962Z,14.14
2023-01-29T21:37:01.941Z,14.09
2023-01-29T21:38:01.934Z,14.17
2023-01-29T21:39:02.004Z,14.14
2023-01-29T21:40:01.982Z,14.12
2023-01-29T21:41:02.024Z,14.15
2023-01-29T21:42:02.022Z,14.15
2023-01-29T21:43:02.068Z,14.14
2023-01-29T21:44:02.031Z,14.12
2023-01-29T21:45:02.069Z,14.12
2023-01-29T21:46:02.080Z,14.15
2023-01-29T21:47:02.109Z,14.14
2023-01-29T21:48:02.133Z,14.12
2023-01-29T21:49:02.116Z,14.14
2023-01-29T21:50:02.092Z,14.08
2023-01-29T21:51:02.264Z,14.15
2023-01-29T21:52:02.161Z,14.12
2023-01-29T21:53:02.145Z,14.12
2023-01-29T21:54:02.178Z,14.10
2023-01-29T21:55:02.131Z,14.09
2023-01-29T21:56:02.153Z,14.09
2023-01-29T21:57:02.178Z,14.09
2023-01-29T21:58:02.233Z,14.04
2023-01-29T21:59:02.198Z,14.09
2023-01-29T22:00:02.230Z,14.11
2023-01-29T22:01:36.127Z,14.15
2023-01-29T22:02:03.352Z,14.13
2023-01-29T22:03:02.273Z,14.12
2023-01-29T22:04:02.208Z,14.08
2023-01-29T22:05:17.716Z,14.11
2023-01-29T22:06:03.215Z,14.12
2023-01-29T22:07:02.181Z,14.12
2023-01-29T22:08:02.212Z,14.06
2023-01-29T22:09:02.195Z,14.09
2023-01-29T22:10:02.194Z,14.09
2023-01-29T22:11:02.162Z,14.09
2023-01-29T22:12:02.169Z,14.09
2023-01-29T22:13:02.120Z,14.08
2023-01-29T22:14:02.154Z,14.09
2023-01-29T22:15:02.130Z,14.04
2023-01-29T22:16:02.154Z,14.08
2023-01-29T22:17:02.198Z,14.08
2023-01-29T22:18:02.126Z,14.07
2023-01-29T22:19:02.151Z,14.06
2023-01-29T22:20:02.147Z,14.03
2023-01-29T22:21:02.158Z,14.03
2023-01-29T22:22:02.158Z,14.06
2023-01-29T22:23:02.200Z,14.08
2023-01-29T22:24:02.212Z,14.04
2023-01-29T22:25:02.219Z,14.06
2023-01-29T22:26:02.230Z,14.08
2023-01-29T22:27:02.187Z,14.07
2023-01-29T22:28:02.219Z,14.11
2023-01-29T22:29:02.208Z,14.07
2023-01-29T22:30:02.204Z,14.07
2023-01-29T22:31:02.221Z,14.08
2023-01-29T22:32:02.239Z,14.09
2023-01-29T22:33:02.235Z,14.03
2023-01-29T22:34:02.189Z,14.07
2023-01-29T22:35:02.231Z,14.09
2023-01-29T22:36:02.224Z,14.03
2023-01-29T22:37:02.212Z,14.07
2023-01-29T22:38:02.219Z,14.09
2023-01-29T22:39:02.273Z,14.03
2023-01-29T22:40:02.262Z,14.03
2023-01-29T22:41:02.264Z,14.00
2023-01-29T22:42:02.277Z,14.03
2023-01-29T22:43:02.285Z,14.04
2023-01-29T22:44:02.257Z,14.07
2023-01-29T22:45:02.263Z,14.04
2023-01-29T22:46:02.288Z,14.06
2023-01-29T22:47:02.241Z,14.03
2023-01-29T22:48:02.236Z,14.00
2023-01-29T22:49:02.259Z,14.06
2023-01-29T22:50:02.248Z,14.03
2023-01-29T22:51:02.265Z,14.04
2023-01-29T22:52:02.232Z,13.98
2023-01-29T22:53:02.249Z,13.97
2023-01-29T22:54:02.276Z,13.95
2023-01-29T22:55:02.304Z,13.98
2023-01-29T22:56:02.338Z,14.03
2023-01-29T22:57:02.299Z,14.00
2023-01-29T22:58:02.310Z,13.98
2023-01-29T22:59:02.324Z,13.98
2023-01-29T23:00:02.415Z,13.98
2023-01-29T23:01:02.352Z,13.95
2023-01-29T23:02:02.376Z,13.98
2023-01-29T23:03:02.352Z,14.00
2023-01-29T23:04:02.377Z,13.95
2023-01-29T23:05:02.358Z,13.97
2023-01-29T23:06:02.351Z,13.93
2023-01-29T23:07:02.365Z,13.94
2023-01-29T23:08:02.365Z,13.91
2023-01-29T23:09:02.372Z,13.95
2023-01-29T23:10:02.329Z,13.94
2023-01-29T23:11:02.349Z,13.93
2023-01-29T23:12:02.361Z,13.94
2023-01-29T23:13:02.365Z,13.88
2023-01-29T23:14:02.358Z,13.91
2023-01-29T23:15:02.393Z,13.89
2023-01-29T23:16:02.437Z,13.94
2023-01-29T23:17:02.415Z,13.95
2023-01-29T23:18:02.412Z,13.91
2023-01-29T23:19:02.394Z,13.89
2023-01-29T23:20:02.395Z,13.86
2023-01-29T23:21:02.467Z,13.92
2023-01-29T23:22:02.413Z,13.88
2023-01-29T23:23:02.408Z,13.88
2023-01-29T23:24:02.424Z,13.88
2023-01-29T23:25:02.411Z,13.88
2023-01-29T23:26:02.400Z,13.89
2023-01-29T23:27:02.396Z,13.88
2023-01-29T23:28:02.406Z,13.85
2023-01-29T23:29:02.411Z,13.91
2023-01-29T23:30:02.409Z,13.88
2023-01-29T23:31:02.570Z,13.86
2023-01-29T23:32:02.431Z,13.91
2023-01-29T23:33:02.388Z,13.82
2023-01-29T23:34:02.377Z,13.86
2023-01-29T23:35:02.372Z,13.85
2023-01-29T23:36:02.393Z,13.82
2023-01-29T23:37:02.391Z,13.80
2023-01-29T23:38:02.392Z,13.83
2023-01-29T23:39:02.413Z,13.80
2023-01-29T23:40:02.382Z,13.83
2023-01-29T23:41:02.469Z,13.86
2023-01-29T23:42:02.425Z,13.86
2023-01-29T23:43:02.403Z,13.82
2023-01-29T23:44:02.390Z,13.88
2023-01-29T23:45:02.363Z,13.86
2023-01-29T23:46:02.384Z,13.89
2023-01-29T23:47:02.376Z,13.88
2023-01-29T23:48:02.397Z,13.82
2023-01-29T23:49:02.385Z,13.82
2023-01-29T23:50:02.345Z,13.79
2023-01-29T23:51:02.379Z,13.82
2023-01-29T23:52:02.383Z,13.82
2023-01-29T23:53:02.341Z,13.85
2023-01-29T23:54:02.344Z,13.80
2023-01-29T23:55:02.337Z,13.82
2023-01-29T23:56:02.361Z,13.76
2023-01-29T23:57:02.320Z,13.79
2023-01-29T23:58:02.304Z,13.82
2023-01-29T23:59:02.325Z,13.77
